Time;durP1;ratioP1;P1;durP2;ratioP2;P2;SDS_P1;SDS_P2;PMS_P1;PMS_P2;Temp;Humidity;BMP_temperature;BMP_pressure;BME280_temperature;BME280_humidity;BME280_pressure;Samples;Min_cycle;Max_cycle;Signal;HPM_P1;HPM_P2
2022/11/30 00:01:18;;;;;;;22.40;18.10;;;;;;;2.43;64.90;101545.23;106790;1307;22066;-74
2022/11/30 00:03:45;;;;;;;23.00;16.80;;;;;;;2.46;65.03;101541.89;106819;1302;22808;-74
2022/11/30 00:06:15;;;;;;;21.30;15.70;;;;;;;2.47;65.01;101541.94;106860;1307;22047;-76
2022/11/30 00:08:42;;;;;;;20.10;16.00;;;;;;;2.50;65.01;101544.29;106847;1307;22053;-75
2022/11/30 00:11:11;;;;;;;20.10;16.10;;;;;;;2.52;65.12;101543.69;106790;1307;22102;-75
2022/11/30 00:13:37;;;;;;;21.10;17.30;;;;;;;2.61;65.20;101549.44;106784;1306;22055;-76
2022/11/30 00:16:04;;;;;;;21.90;17.10;;;;;;;2.66;65.09;101547.73;106783;1307;22120;-75
2022/11/30 00:18:31;;;;;;;20.30;16.80;;;;;;;2.68;64.87;101547.82;106436;1313;22126;-76
2022/11/30 00:21:00;;;;;;;20.10;17.10;;;;;;;2.68;64.82;101546.43;106439;1313;22392;-75
2022/11/30 00:23:34;;;;;;;19.50;16.60;;;;;;;2.70;65.01;101546.86;106409;1313;22212;-75
2022/11/30 00:26:02;;;;;;;20.20;17.40;;;;;;;2.74;64.88;101545.79;106472;1313;22390;-75
2022/11/30 00:28:33;;;;;;;20.50;16.40;;;;;;;2.69;64.77;101542.11;106410;1313;22173;-75
2022/11/30 00:31:03;;;;;;;21.00;17.80;;;;;;;2.62;64.66;101544.08;106371;1312;22143;-76
2022/11/30 00:33:34;;;;;;;23.20;17.90;;;;;;;2.60;64.97;101541.41;106226;1313;22106;-75
2022/11/30 00:36:04;;;;;;;21.50;17.50;;;;;;;2.60;64.96;101548.55;106270;1307;22199;-76
2022/11/30 00:38:32;;;;;;;21.60;17.50;;;;;;;2.60;64.99;101543.32;106841;1307;22109;-76
2022/11/30 00:41:00;;;;;;;20.30;16.90;;;;;;;2.58;65.14;101544.98;106689;1307;22072;-75
2022/11/30 00:43:27;;;;;;;20.40;16.40;;;;;;;2.60;65.25;101544.52;106692;1307;22072;-76
2022/11/30 00:45:55;;;;;;;22.70;17.20;;;;;;;2.64;65.27;101545.39;106790;1307;22088;-75
2022/11/30 00:48:23;;;;;;;20.30;17.80;;;;;;;2.68;65.15;101552.19;106672;1307;22087;-76
2022/11/30 00:50:50;;;;;;;20.70;17.60;;;;;;;2.66;65.06;101551.74;106477;1312;22092;-79
2022/11/30 00:53:17;;;;;;;22.20;16.80;;;;;;;2.67;65.08;101554.39;106490;1313;22178;-75
2022/11/30 00:55:44;;;;;;;23.60;17.80;;;;;;;2.66;64.98;101554.00;106433;1311;22151;-75
2022/11/30 00:58:12;;;;;;;19.50;15.80;;;;;;;2.64;65.05;101557.77;106174;1313;22167;-75
2022/11/30 01:00:40;;;;;;;19.90;16.70;;;;;;;2.63;65.02;101556.31;106406;1313;22175;-76
2022/11/30 01:03:08;;;;;;;20.90;16.90;;;;;;;2.62;64.98;101551.23;106408;1311;22130;-75
2022/11/30 01:05:35;;;;;;;21.10;17.40;;;;;;;2.63;65.24;101556.16;106436;1311;22374;-75
2022/11/30 01:08:04;;;;;;;19.30;16.30;;;;;;;2.65;65.08;101556.23;106400;1310;22838;-75
2022/11/30 01:10:33;;;;;;;19.70;15.40;;;;;;;2.59;64.96;101559.48;106697;1310;22234;-75
2022/11/30 01:13:00;;;;;;;20.20;15.80;;;;;;;2.60;65.13;101560.41;106821;1310;22159;-76
2022/11/30 01:15:27;;;;;;;19.30;16.00;;;;;;;2.63;65.18;101563.29;106668;1310;22138;-75
2022/11/30 01:17:54;;;;;;;19.30;16.00;;;;;;;2.64;65.09;101567.32;106802;1310;22176;-75
2022/11/30 01:20:21;;;;;;;18.50;14.80;;;;;;;2.60;64.92;101563.48;106657;1310;22055;-76
2022/11/30 01:22:47;;;;;;;21.00;16.10;;;;;;;2.56;65.11;101563.52;106678;1304;22054;-75
2022/11/30 01:25:14;;;;;;;19.60;16.10;;;;;;;2.56;64.97;101561.75;106819;1308;22093;-75
2022/11/30 01:27:41;;;;;;;23.30;17.10;;;;;;;2.53;65.06;101561.63;106830;1310;22106;-76
2022/11/30 01:30:08;;;;;;;20.90;16.20;;;;;;;2.53;65.19;101564.41;106691;1310;22261;-75
2022/11/30 01:32:36;;;;;;;18.70;15.70;;;;;;;2.54;65.25;101563.27;106658;1310;22065;-74
2022/11/30 01:35:03;;;;;;;18.80;16.20;;;;;;;2.57;65.28;101566.35;106689;1309;22879;-76
2022/11/30 01:37:30;;;;;;;20.80;16.70;;;;;;;2.59;65.13;101572.16;106799;1294;22249;-75
2022/11/30 01:39:57;;;;;;;21.40;17.30;;;;;;;2.55;65.21;101571.47;106677;1310;22813;-74
2022/11/30 01:42:23;;;;;;;20.10;16.90;;;;;;;2.57;65.39;101569.30;106681;1310;22092;-76
2022/11/30 01:44:55;;;;;;;21.70;17.50;;;;;;;2.62;65.22;101571.90;106803;1309;22197;-74
2022/11/30 01:47:39;;;;;;;20.20;17.10;;;;;;;2.62;65.29;101569.52;106806;1309;22076;-74
2022/11/30 01:50:34;;;;;;;19.60;15.90;;;;;;;2.66;65.25;101571.23;106712;1310;22601;-73
2022/11/30 01:53:02;;;;;;;21.30;16.50;;;;;;;2.64;65.06;101569.91;106677;1310;22051;-73
2022/11/30 01:55:36;;;;;;;21.80;17.40;;;;;;;2.64;65.25;101570.95;106705;1310;22146;-74
2022/11/30 01:58:14;;;;;;;20.00;15.60;;;;;;;2.66;65.21;101572.45;106683;1309;22103;-74
2022/11/30 02:00:44;;;;;;;20.40;17.10;;;;;;;2.71;65.32;101577.20;106803;1309;22076;-75
2022/11/30 02:03:27;;;;;;;20.30;15.80;;;;;;;2.73;65.09;101573.80;106698;1310;22694;-75
2022/11/30 02:05:54;;;;;;;19.40;15.50;;;;;;;2.71;64.98;101575.96;106814;1301;22091;-75
2022/11/30 02:08:21;;;;;;;19.60;16.80;;;;;;;2.72;65.00;101572.52;106689;1308;22841;-76
2022/11/30 02:10:53;;;;;;;20.40;16.60;;;;;;;2.72;64.91;101570.10;106669;1308;22727;-76
2022/11/30 02:13:40;;;;;;;19.20;16.00;;;;;;;2.66;64.55;101570.70;106787;1310;22017;-76
2022/11/30 02:16:47;;;;;;;20.20;15.80;;;;;;;2.57;64.88;101570.33;106812;1308;22068;-76
2022/11/30 02:19:38;;;;;;;20.90;16.30;;;;;;;2.56;65.21;101573.58;106816;1308;22208;-75
2022/11/30 02:22:48;;;;;;;21.90;15.90;;;;;;;2.61;65.15;101574.85;106802;1309;22058;-78
2022/11/30 02:25:36;;;;;;;21.30;16.90;;;;;;;2.67;65.09;101573.54;106831;1310;22080;-76
2022/11/30 02:28:29;;;;;;;20.10;15.80;;;;;;;2.68;65.11;101572.35;106834;1309;22087;-77
2022/11/30 02:31:01;;;;;;;22.00;17.10;;;;;;;2.67;64.95;101571.59;106718;1310;22747;-75
2022/11/30 02:33:30;;;;;;;19.50;16.10;;;;;;;2.65;65.21;101576.58;106809;1305;22094;-75
2022/11/30 02:35:59;;;;;;;22.50;18.30;;;;;;;2.66;65.10;101581.85;106675;1308;22119;-76
2022/11/30 02:38:26;;;;;;;24.20;18.80;;;;;;;2.68;65.14;101580.38;106810;1302;22790;-75
2022/11/30 02:40:53;;;;;;;22.70;16.20;;;;;;;2.71;65.13;101582.05;106645;1310;22064;-77
2022/11/30 02:43:23;;;;;;;23.00;17.30;;;;;;;2.74;65.03;101584.45;106803;1310;22048;-76
2022/11/30 02:46:10;;;;;;;22.50;17.80;;;;;;;2.69;64.88;101586.84;106704;1309;22952;-76
2022/11/30 02:48:49;;;;;;;23.90;17.70;;;;;;;2.66;64.94;101590.89;106810;1309;22133;-76
2022/11/30 02:51:20;;;;;;;22.10;17.80;;;;;;;2.66;65.12;101589.14;106814;1309;22883;-76
2022/11/30 02:53:48;;;;;;;22.60;18.20;;;;;;;2.68;65.15;101589.38;106799;1309;22094;-76
2022/11/30 02:56:17;;;;;;;24.90;19.20;;;;;;;2.69;65.21;101588.05;106817;1309;22062;-76
2022/11/30 02:58:44;;;;;;;23.40;17.90;;;;;;;2.72;65.22;101589.40;106339;1313;22091;-75
2022/11/30 03:01:11;;;;;;;22.80;17.70;;;;;;;2.73;65.14;101588.89;106302;1314;22152;-78
2022/11/30 03:03:37;;;;;;;22.80;17.90;;;;;;;2.74;65.07;101587.57;106158;1314;22630;-77
2022/11/30 03:06:04;;;;;;;24.80;18.10;;;;;;;2.75;65.08;101591.41;106267;1314;22289;-74
2022/11/30 03:08:31;;;;;;;24.60;18.70;;;;;;;2.75;65.01;101595.07;106200;1315;22133;-74
2022/11/30 03:11:02;;;;;;;23.70;18.50;;;;;;;2.75;65.06;101596.30;106297;1314;22175;-80
2022/11/30 03:13:30;;;;;;;24.10;19.30;;;;;;;2.71;64.93;101592.48;105942;1316;22277;-76
2022/11/30 03:15:57;;;;;;;22.20;16.90;;;;;;;2.70;65.06;101593.30;106334;1310;22953;-76
2022/11/30 03:18:23;;;;;;;21.30;17.60;;;;;;;2.66;64.83;101591.05;106807;1307;22132;-74
2022/11/30 03:20:50;;;;;;;21.10;17.40;;;;;;;2.57;64.88;101593.26;106713;1301;22120;-75
2022/11/30 03:23:17;;;;;;;22.20;17.70;;;;;;;2.53;65.00;101596.61;106632;1310;22114;-74
2022/11/30 03:25:44;;;;;;;22.60;17.30;;;;;;;2.56;65.24;101593.96;106549;1310;22167;-75
2022/11/30 03:28:10;;;;;;;23.00;17.60;;;;;;;2.59;64.99;101597.55;106686;1310;22093;-75
2022/11/30 03:30:37;;;;;;;22.20;17.70;;;;;;;2.58;65.06;101598.56;106659;1310;22064;-78
2022/11/30 03:33:04;;;;;;;23.20;17.80;;;;;;;2.63;65.14;101598.75;106800;1309;22095;-73
2022/11/30 03:35:31;;;;;;;21.10;15.70;;;;;;;2.67;64.96;101599.63;106630;1309;22073;-73
2022/11/30 03:37:57;;;;;;;20.40;16.30;;;;;;;2.67;64.64;101604.31;106672;1307;22052;-73
2022/11/30 03:40:24;;;;;;;21.90;17.20;;;;;;;2.61;64.70;101612.77;106845;1307;22078;-73
2022/11/30 03:42:51;;;;;;;22.10;17.10;;;;;;;2.56;64.83;101614.13;106767;1307;22651;-73
2022/11/30 03:45:18;;;;;;;22.40;17.10;;;;;;;2.53;64.62;101616.05;106659;1296;22052;-72
2022/11/30 03:47:44;;;;;;;20.50;16.20;;;;;;;2.44;64.68;101620.20;106191;1313;22192;-74
2022/11/30 03:50:11;;;;;;;21.30;17.30;;;;;;;2.42;64.82;101621.34;106228;1314;22855;-74
2022/11/30 03:52:38;;;;;;;21.90;17.70;;;;;;;2.38;64.84;101621.86;106335;1313;22454;-80
2022/11/30 03:55:05;;;;;;;19.20;16.90;;;;;;;2.34;64.89;101618.56;105733;1319;22740;-73
2022/11/30 03:57:32;;;;;;;21.40;16.70;;;;;;;2.31;64.97;101618.95;105596;1318;22207;-73
2022/11/30 03:59:59;;;;;;;22.50;17.70;;;;;;;2.27;64.99;101616.51;105790;1318;22190;-73
2022/11/30 04:02:26;;;;;;;22.10;18.30;;;;;;;2.29;65.38;101617.27;105618;1313;22877;-73
2022/11/30 04:04:53;;;;;;;23.00;18.20;;;;;;;2.33;65.38;101619.74;105788;1318;22140;-73
2022/11/30 04:07:20;;;;;;;22.80;18.60;;;;;;;2.33;65.42;101620.95;106418;1313;22206;-73
2022/11/30 04:09:47;;;;;;;23.40;17.70;;;;;;;2.35;65.35;101624.35;106462;1312;22166;-73
2022/11/30 04:12:13;;;;;;;23.50;18.20;;;;;;;2.39;65.53;101625.54;106404;1313;22310;-83
2022/11/30 04:14:40;;;;;;;23.00;18.80;;;;;;;2.39;65.32;101627.66;106841;1307;22921;-79
2022/11/30 04:17:07;;;;;;;24.20;18.80;;;;;;;2.41;65.57;101625.48;106836;1307;22072;-75
2022/11/30 04:19:33;;;;;;;23.70;17.70;;;;;;;2.46;65.60;101628.46;106776;1307;22779;-78
2022/11/30 04:22:00;;;;;;;23.80;16.90;;;;;;;2.51;65.52;101623.61;106873;1307;22130;-77
2022/11/30 04:24:27;;;;;;;20.20;17.40;;;;;;;2.58;65.58;101624.64;106783;1307;22064;-76
2022/11/30 04:26:53;;;;;;;25.10;17.80;;;;;;;2.65;65.44;101625.10;106873;1299;22213;-74
2022/11/30 04:29:20;;;;;;;23.50;19.50;;;;;;;2.65;65.27;101623.89;106687;1307;22118;-74
2022/11/30 04:31:47;;;;;;;21.40;17.30;;;;;;;2.71;65.46;101625.02;106874;1307;22200;-75
2022/11/30 04:34:14;;;;;;;21.10;17.30;;;;;;;2.77;65.36;101625.63;106632;1307;22045;-76
2022/11/30 04:36:40;;;;;;;20.50;16.70;;;;;;;2.75;65.05;101623.78;106869;1307;22147;-76
2022/11/30 04:39:07;;;;;;;22.00;17.90;;;;;;;2.73;64.92;101626.83;106794;1302;22837;-75
2022/11/30 04:41:34;;;;;;;23.00;18.40;;;;;;;2.67;64.90;101628.67;106663;1307;22777;-74
2022/11/30 04:44:01;;;;;;;22.50;18.30;;;;;;;2.67;65.13;101637.73;106793;1307;22063;-75
2022/11/30 04:46:28;;;;;;;22.20;17.60;;;;;;;2.69;65.00;101634.84;106697;1307;22754;-75
2022/11/30 04:48:55;;;;;;;20.10;15.90;;;;;;;2.70;64.94;101633.00;106536;1307;22089;-75
2022/11/30 04:51:21;;;;;;;20.90;16.60;;;;;;;2.69;64.75;101635.38;106692;1307;22077;-74
2022/11/30 04:53:48;;;;;;;19.20;15.80;;;;;;;2.68;64.65;101635.48;106896;1305;22169;-74
2022/11/30 04:56:15;;;;;;;18.80;15.70;;;;;;;2.62;64.67;101637.52;106857;1306;22865;-74
2022/11/30 04:58:42;;;;;;;20.70;16.30;;;;;;;2.58;64.57;101638.41;106520;1311;22099;-75
2022/11/30 05:01:09;;;;;;;21.00;16.10;;;;;;;2.51;64.60;101636.67;106374;1313;22687;-75
2022/11/30 05:03:35;;;;;;;19.70;16.00;;;;;;;2.50;64.81;101637.52;106455;1313;22126;-75
2022/11/30 05:06:03;;;;;;;21.70;17.00;;;;;;;2.52;64.94;101640.71;106432;1313;22867;-74
2022/11/30 05:08:30;;;;;;;20.40;16.40;;;;;;;2.54;64.97;101641.31;106434;1313;22089;-76
2022/11/30 05:10:56;;;;;;;20.90;17.00;;;;;;;2.56;65.03;101644.72;106241;1299;22212;-76
2022/11/30 05:13:25;;;;;;;20.70;17.80;;;;;;;2.54;64.87;101651.25;106494;1312;22111;-77
2022/11/30 05:15:55;;;;;;;22.30;17.20;;;;;;;2.53;64.80;101653.80;106409;1312;22252;-75
2022/11/30 05:18:22;;;;;;;20.20;16.10;;;;;;;2.44;64.67;101648.72;106669;1310;22098;-76
2022/11/30 05:20:50;;;;;;;22.20;17.70;;;;;;;2.40;65.11;101650.30;106720;1301;22237;-78
2022/11/30 05:23:17;;;;;;;20.80;16.60;;;;;;;2.46;65.38;101646.23;106614;1307;22832;-77
2022/11/30 05:25:45;;;;;;;20.80;16.30;;;;;;;2.50;65.34;101640.30;106802;1307;22061;-80
2022/11/30 05:28:12;;;;;;;22.60;17.40;;;;;;;2.56;65.28;101647.31;106654;1307;22072;-75
2022/11/30 05:30:40;;;;;;;20.10;15.60;;;;;;;2.62;65.37;101650.73;106868;1307;22895;-75
2022/11/30 05:33:06;;;;;;;18.50;16.10;;;;;;;2.70;65.24;101652.98;106687;1307;22167;-75
2022/11/30 05:35:34;;;;;;;20.90;17.10;;;;;;;2.74;65.18;101650.52;106791;1307;22757;-75
2022/11/30 05:38:01;;;;;;;19.20;16.10;;;;;;;2.79;65.14;101653.86;106784;1307;22273;-75
2022/11/30 05:40:29;;;;;;;20.80;16.70;;;;;;;2.82;65.12;101656.08;106802;1309;22061;-75
2022/11/30 05:42:57;;;;;;;23.10;17.70;;;;;;;2.85;65.03;101657.62;106641;1310;23040;-74
2022/11/30 05:45:25;;;;;;;20.30;16.70;;;;;;;2.86;64.96;101659.59;106806;1310;22102;-75
2022/11/30 05:47:52;;;;;;;18.30;15.10;;;;;;;2.86;64.78;101664.45;106882;1305;22082;-85
2022/11/30 05:50:18;;;;;;;21.80;16.70;;;;;;;2.81;64.69;101665.44;106811;1306;22065;-79
2022/11/30 05:52:53;;;;;;;21.60;16.30;;;;;;;2.80;64.88;101667.85;106978;1299;22077;-78
2022/11/30 05:55:23;;;;;;;17.60;14.60;;;;;;;2.81;64.83;101667.70;107068;1305;22773;-90
2022/11/30 05:57:49;;;;;;;19.20;15.90;;;;;;;2.75;64.62;101669.88;106840;1307;22789;-79
2022/11/30 06:00:17;;;;;;;16.90;14.80;;;;;;;2.71;64.75;101668.36;106797;1298;22046;-79
2022/11/30 06:02:43;;;;;;;20.50;16.30;;;;;;;2.71;64.70;101671.98;106940;1307;22084;-78
2022/11/30 06:05:12;;;;;;;17.80;15.20;;;;;;;2.70;65.00;101668.63;106743;1307;22064;-78
2022/11/30 06:07:39;;;;;;;17.70;14.90;;;;;;;2.72;64.96;101675.88;106925;1306;22062;-77
2022/11/30 06:10:07;;;;;;;19.30;15.10;;;;;;;2.77;65.03;101673.77;106945;1306;22152;-81
2022/11/30 06:12:34;;;;;;;18.60;15.00;;;;;;;2.78;64.80;101674.02;106812;1306;22096;-79
2022/11/30 06:15:00;;;;;;;18.90;15.00;;;;;;;2.75;64.57;101676.35;106814;1284;22053;-81
2022/11/30 06:17:27;;;;;;;19.60;15.40;;;;;;;2.70;64.52;101674.72;106763;1307;22070;-80
2022/11/30 06:19:54;;;;;;;19.00;15.00;;;;;;;2.69;64.68;101679.89;106805;1307;22119;-80
2022/11/30 06:22:20;;;;;;;18.10;15.20;;;;;;;2.69;64.61;101679.38;106958;1307;22083;-80
2022/11/30 06:24:48;;;;;;;23.50;16.30;;;;;;;2.63;64.61;101677.02;106964;1307;22077;-81
2022/11/30 06:27:15;;;;;;;18.90;16.40;;;;;;;2.57;64.72;101675.05;106885;1301;22198;-83
2022/11/30 06:29:42;;;;;;;21.20;15.40;;;;;;;2.56;65.03;101673.23;106977;1306;22057;-81
2022/11/30 06:32:08;;;;;;;18.30;15.60;;;;;;;2.60;65.20;101673.60;107065;1307;22091;-82
2022/11/30 06:34:35;;;;;;;20.70;14.80;;;;;;;2.68;65.36;101677.76;107173;1299;22071;-82
2022/11/30 06:37:02;;;;;;;20.10;16.30;;;;;;;2.78;65.27;101680.10;106932;1307;22176;-80
2022/11/30 06:39:29;;;;;;;21.00;17.70;;;;;;;2.86;65.27;101682.56;106893;1307;22046;-81
2022/11/30 06:42:18;;;;;;;;;;;;;;;2.92;65.05;101685.77;107198;1306;22271;-80
2022/11/30 06:44:45;;;;;;;18.40;15.70;;;;;;;2.99;65.02;101689.72;107122;1298;22546;-81
2022/11/30 06:47:12;;;;;;;21.40;18.30;;;;;;;3.02;64.82;101694.38;107068;1307;22034;-80
2022/11/30 06:49:39;;;;;;;23.20;19.00;;;;;;;3.04;64.86;101693.39;107161;1299;22074;-79
2022/11/30 06:52:05;;;;;;;21.20;18.10;;;;;;;3.05;64.84;101695.17;107181;1299;22246;-82
2022/11/30 06:54:33;;;;;;;22.10;17.30;;;;;;;3.04;64.81;101697.08;107150;1307;22082;-80
2022/11/30 06:57:00;;;;;;;21.70;17.90;;;;;;;3.03;64.66;101701.03;107204;1306;22832;-80
2022/11/30 06:59:27;;;;;;;22.30;17.30;;;;;;;3.02;64.73;101695.39;107189;1295;22087;-81
2022/11/30 07:01:54;;;;;;;21.40;17.80;;;;;;;3.02;64.82;101698.68;107183;1302;22102;-79
2022/11/30 07:04:22;;;;;;;20.80;16.90;;;;;;;3.02;64.75;101704.45;107168;1301;22076;-80
2022/11/30 07:06:48;;;;;;;20.90;16.90;;;;;;;2.99;64.60;101706.74;107174;1307;22083;-79
2022/11/30 07:09:15;;;;;;;22.00;17.40;;;;;;;2.96;64.66;101709.60;107078;1307;22115;-81
2022/11/30 07:11:42;;;;;;;22.30;17.00;;;;;;;2.91;64.62;101710.28;107074;1305;22094;-82
2022/11/30 07:14:08;;;;;;;20.40;17.20;;;;;;;2.91;64.65;101710.10;107034;1305;22164;-82
2022/11/30 07:16:35;;;;;;;20.00;17.10;;;;;;;2.90;64.80;101705.71;107156;1306;22082;-80
2022/11/30 07:19:02;;;;;;;23.40;17.80;;;;;;;2.95;64.88;101709.36;107130;1306;22730;-80
2022/11/30 07:21:29;;;;;;;26.30;17.40;;;;;;;2.96;64.81;101711.89;107145;1306;22063;-79
2022/11/30 07:26:41;;;;;;;23.70;17.60;;;;;;;2.98;64.75;101708.83;107160;1306;22085;-80
2022/11/30 07:29:08;;;;;;;22.20;17.00;;;;;;;3.01;64.79;101713.45;107150;1306;22141;-83
2022/11/30 07:31:35;;;;;;;22.10;17.80;;;;;;;3.01;64.79;101715.88;107023;1291;22091;-80
2022/11/30 07:34:08;;;;;;;24.80;18.90;;;;;;;3.01;64.73;101711.21;107016;1307;22802;-81
2022/11/30 07:36:35;;;;;;;23.10;17.50;;;;;;;3.01;64.64;101712.42;106946;1302;22081;-81
2022/11/30 07:39:03;;;;;;;23.70;18.30;;;;;;;3.01;64.67;101717.13;106905;1295;22059;-82
2022/11/30 07:41:30;;;;;;;19.70;17.30;;;;;;;3.02;64.61;101717.16;106888;1302;22152;-81
2022/11/30 07:44:03;;;;;;;20.20;17.00;;;;;;;3.01;64.66;101721.97;106876;1301;22806;-82
2022/11/30 07:46:32;;;;;;;25.70;17.90;;;;;;;2.99;64.82;101722.95;106894;1307;22103;-81
2022/11/30 07:48:58;;;;;;;23.60;18.70;;;;;;;3.03;65.10;101724.17;106581;1305;22160;-81
2022/11/30 07:51:25;;;;;;;22.80;18.00;;;;;;;3.05;64.67;101721.11;106519;1310;22168;-81
2022/11/30 07:53:55;;;;;;;21.80;16.50;;;;;;;3.07;64.92;101720.48;106577;1310;22206;-80
2022/11/30 07:56:23;;;;;;;24.60;18.40;;;;;;;3.11;64.98;101721.19;106575;1305;22155;-81
2022/11/30 07:58:55;;;;;;;22.30;18.30;;;;;;;3.11;64.69;101722.24;106494;1310;22107;-80
2022/11/30 08:01:25;;;;;;;27.50;19.40;;;;;;;3.09;65.03;101724.61;106516;1310;22123;-79
2022/11/30 08:03:52;;;;;;;22.60;18.20;;;;;;;3.15;65.25;101722.41;106352;1310;178334;-79
2022/11/30 08:06:21;;;;;;;20.00;17.00;;;;;;;3.18;64.89;101719.42;106512;1307;22059;-79
2022/11/30 08:08:50;;;;;;;20.70;16.90;;;;;;;3.12;64.43;101720.37;106892;1307;22081;-80
2022/11/30 08:11:20;;;;;;;21.50;17.30;;;;;;;3.08;64.73;101721.05;106862;1307;22073;-80
2022/11/30 08:13:47;;;;;;;21.50;17.20;;;;;;;3.08;64.79;101716.56;106921;1307;22141;-82
2022/11/30 08:16:18;;;;;;;23.40;18.70;;;;;;;2.99;64.53;101716.00;106900;1307;22125;-81
2022/11/30 08:18:46;;;;;;;26.00;19.40;;;;;;;2.94;64.97;101715.77;106752;1307;22057;-80
2022/11/30 08:21:15;;;;;;;24.10;19.30;;;;;;;2.95;65.28;101718.79;106873;1307;22197;-81
2022/11/30 08:23:45;;;;;;;27.00;17.60;;;;;;;3.01;65.37;101718.70;106896;1306;22041;-80
2022/11/30 08:26:24;;;;;;;20.70;17.50;;;;;;;3.04;65.21;101721.96;106770;1307;22746;-81
2022/11/30 08:28:51;;;;;;;23.50;18.40;;;;;;;3.04;65.21;101722.29;106501;1311;22096;-79
2022/11/30 08:31:22;;;;;;;22.80;18.00;;;;;;;3.07;65.37;101722.45;106402;1313;22141;-80
2022/11/30 08:33:53;;;;;;;23.40;17.20;;;;;;;3.11;65.24;101723.44;106216;1313;22170;-79
2022/11/30 08:36:22;;;;;;;21.80;18.20;;;;;;;3.13;65.23;101726.83;106108;1313;22373;-81
2022/11/30 08:38:49;;;;;;;24.50;17.60;;;;;;;3.13;65.12;101728.40;106121;1312;22105;-81
2022/11/30 08:41:20;;;;;;;22.20;17.20;;;;;;;3.08;64.98;101725.95;106515;1312;22198;-81
2022/11/30 08:43:51;;;;;;;21.10;17.50;;;;;;;3.06;65.13;101723.62;106535;1312;22105;-80
2022/11/30 08:46:20;;;;;;;21.90;16.80;;;;;;;3.06;65.31;101725.67;106478;1306;22171;-81
2022/11/30 08:49:07;;;;;;;20.80;17.60;;;;;;;3.09;65.28;101728.94;106933;1306;22101;-81
2022/11/30 08:51:53;;;;;;;20.80;16.50;;;;;;;3.08;65.36;101729.26;106844;1307;22043;-80
2022/11/30 08:54:43;;;;;;;23.50;16.80;;;;;;;3.14;65.30;101727.76;106894;1307;22124;-82
2022/11/30 08:57:11;;;;;;;22.10;17.00;;;;;;;3.18;65.45;101728.30;106943;1307;22196;-81
2022/11/30 08:59:38;;;;;;;22.40;16.60;;;;;;;3.20;65.33;101727.89;106748;1307;22069;-81
2022/11/30 09:02:05;;;;;;;23.10;17.80;;;;;;;3.21;65.34;101725.31;106880;1307;22171;-80
2022/11/30 09:04:35;;;;;;;29.50;18.00;;;;;;;3.16;65.09;101724.89;106938;1307;22736;-81
2022/11/30 09:07:02;;;;;;;20.70;16.70;;;;;;;3.10;65.12;101730.56;106961;1305;22102;-82
2022/11/30 09:09:29;;;;;;;21.50;16.60;;;;;;;3.07;65.37;101729.91;106867;1307;22066;-81
2022/11/30 09:11:56;;;;;;;18.00;15.70;;;;;;;3.05;65.38;101728.43;106948;1307;22074;-81
2022/11/30 09:14:23;;;;;;;20.10;15.40;;;;;;;3.03;65.34;101730.06;106748;1307;22098;-81
2022/11/30 09:16:52;;;;;;;20.20;15.60;;;;;;;3.03;65.45;101730.41;106750;1307;22146;-81
2022/11/30 09:19:18;;;;;;;19.40;15.50;;;;;;;2.97;65.48;101733.30;106843;1305;22986;-81
2022/11/30 09:21:45;;;;;;;19.80;16.00;;;;;;;2.97;65.70;101735.58;106826;1305;22101;-81
2022/11/30 09:24:19;;;;;;;17.70;15.80;;;;;;;2.93;65.42;101733.30;106834;1307;22142;-80
2022/11/30 09:26:46;;;;;;;18.80;15.00;;;;;;;2.87;65.54;101736.02;106851;1307;22147;-80
2022/11/30 09:29:12;;;;;;;22.00;15.40;;;;;;;2.81;65.49;101737.49;106840;1307;22151;-81
2022/11/30 09:31:39;;;;;;;21.30;17.30;;;;;;;2.78;65.66;101738.92;106895;1307;22068;-80
2022/11/30 09:34:06;;;;;;;19.00;15.70;;;;;;;2.77;65.89;101737.84;106869;1307;22852;-81
2022/11/30 09:36:32;;;;;;;20.00;14.90;;;;;;;2.82;66.08;101741.71;106805;1310;22164;-81
2022/11/30 09:38:59;;;;;;;18.90;15.80;;;;;;;2.90;66.09;101735.08;106271;1312;22801;-81
2022/11/30 09:41:48;;;;;;;21.30;16.30;;;;;;;2.97;66.03;101738.89;106514;1312;22145;-80
2022/11/30 09:44:21;;;;;;;23.70;16.10;;;;;;;3.04;65.91;101734.11;106285;1314;22971;-83
2022/11/30 09:46:53;;;;;;;17.80;15.00;;;;;;;3.06;65.79;101731.59;106465;1312;22194;-81
2022/11/30 09:49:23;;;;;;;21.20;15.40;;;;;;;3.03;65.65;101734.27;106506;1312;22130;-81
2022/11/30 09:51:53;;;;;;;18.40;14.70;;;;;;;3.01;65.70;101735.41;106239;1307;22940;-81
2022/11/30 09:54:34;;;;;;;20.30;15.00;;;;;;;2.98;65.61;101733.16;105305;1321;22273;-82
2022/11/30 09:57:26;;;;;;;24.10;16.30;;;;;;;2.94;65.77;101735.09;105531;1315;22179;-81
2022/11/30 10:00:03;;;;;;;17.10;14.30;;;;;;;2.93;65.88;101736.97;106079;1316;22610;-81
2022/11/30 10:02:38;;;;;;;17.40;14.40;;;;;;;2.93;65.94;101738.34;105968;1315;22276;-82
2022/11/30 10:05:18;;;;;;;20.40;15.20;;;;;;;2.91;65.98;101737.41;105961;1315;22164;-81
2022/11/30 10:08:00;;;;;;;18.90;15.40;;;;;;;2.89;65.90;101736.09;106063;1313;22867;-81
2022/11/30 10:10:42;;;;;;;18.60;15.40;;;;;;;2.86;66.02;101736.15;106232;1310;22129;-80
2022/11/30 10:13:29;;;;;;;18.50;14.40;;;;;;;2.88;66.32;101733.78;106843;1307;22041;-80
2022/11/30 10:16:19;;;;;;;21.70;14.90;;;;;;;2.92;66.33;101737.77;106897;1307;22824;-82
2022/11/30 10:19:05;;;;;;;14.60;12.00;;;;;;;2.88;66.02;101737.11;106926;1305;22060;-82
2022/11/30 10:21:43;;;;;;;16.50;13.30;;;;;;;2.83;66.18;101739.48;107040;1305;22118;-81
2022/11/30 10:24:25;;;;;;;14.90;12.40;;;;;;;2.85;66.19;101736.80;106893;1288;22078;-80
2022/11/30 10:26:54;;;;;;;14.00;11.10;;;;;;;2.82;66.08;101733.56;107018;1295;22880;-81
2022/11/30 10:29:38;;;;;;;14.30;12.00;;;;;;;2.71;66.01;101729.73;106848;1306;22774;-80
2022/11/30 10:32:14;;;;;;;15.10;12.00;;;;;;;2.66;66.22;101729.73;106543;1312;22893;-81
2022/11/30 10:34:43;;;;;;;18.20;13.00;;;;;;;2.62;66.56;101728.46;106637;1310;22865;-81
2022/11/30 10:37:32;;;;;;;17.80;12.90;;;;;;;2.65;66.84;101728.10;106658;1310;22162;-80
2022/11/30 10:40:10;;;;;;;15.00;11.80;;;;;;;2.71;66.88;101725.91;106629;1313;22185;-81
2022/11/30 10:43:02;;;;;;;15.40;12.00;;;;;;;2.78;66.94;101727.10;106165;1314;22442;-81
2022/11/30 10:45:31;;;;;;;13.90;11.60;;;;;;;2.88;67.10;101728.05;106349;1313;22271;-81
2022/11/30 10:48:30;;;;;;;18.40;13.40;;;;;;;2.95;66.91;101728.54;105970;1316;22123;-80
2022/11/30 10:50:59;;;;;;;14.50;11.60;;;;;;;3.01;66.66;101728.08;106438;1312;22083;-81
2022/11/30 10:53:26;;;;;;;17.80;12.50;;;;;;;3.07;66.69;101722.93;105936;1315;22209;-81
2022/11/30 10:56:11;;;;;;;16.00;12.60;;;;;;;3.09;66.59;101725.48;105862;1316;22108;-80
2022/11/30 10:58:53;;;;;;;16.30;12.80;;;;;;;3.08;66.34;101720.55;105838;1315;22844;-80
2022/11/30 11:01:32;;;;;;;15.40;12.50;;;;;;;3.03;66.46;101722.27;106326;1310;22359;-79
2022/11/30 11:04:11;;;;;;;16.60;12.10;;;;;;;3.02;66.26;101724.48;106418;1313;22125;-81
2022/11/30 11:06:47;;;;;;;14.80;12.60;;;;;;;2.99;66.62;101719.47;106583;1313;22766;-81
2022/11/30 11:09:39;;;;;;;18.20;13.30;;;;;;;3.07;66.71;101714.95;106520;1312;22158;-81
2022/11/30 11:12:26;;;;;;;15.50;13.80;;;;;;;3.12;66.65;101711.30;106753;1307;22637;-81
2022/11/30 11:15:16;;;;;;;;;;;;;;;3.18;66.73;101714.88;106850;1307;22279;-80
2022/11/30 11:17:43;;;;;;;17.60;13.30;;;;;;;3.21;66.49;101718.67;106894;1304;22153;-81
2022/11/30 11:20:32;;;;;;;16.50;11.50;;;;;;;3.14;66.16;101715.59;106866;1307;22061;-80
2022/11/30 11:22:59;;;;;;;15.80;11.30;;;;;;;3.05;66.39;101716.08;106882;1307;22126;-81
2022/11/30 11:25:32;;;;;;;14.10;12.40;;;;;;;3.00;66.26;101718.30;106868;1307;22061;-80
2022/11/30 11:28:14;;;;;;;14.70;12.00;;;;;;;2.96;66.55;101713.96;106431;1312;22844;-80